Terminal Aerodrome Forecast
Issued by NWS Binghamton, NY

Home | Current Version | Previous Version | Text Only | Print | Product List | Glossary On
Versions: 1 2 3 4 5 6 7 8 9 10 11 12 13 14 15 16 17 18 19
198
FTUS41 KBGM 301131
TAFBGM
TAF
KBGM 301131Z 3012/0112 VRB03KT P6SM OVC035
      TEMPO 3012/3015 5SM BR OVC025
     FM301700 17005KT P6SM BKN040
     FM010700 13008KT P6SM -RA OVC025=

USA.gov is the U.S. government's official web portal to all federal, state and local government web resources and services.